Scroggins, Texas
Current Conditions -  °F | °C
As of 11:35 PM on Friday 19 Dec 2014 (Local Time) from KOSA Reporting Station
Overcast Overcast  
Wind Chill: 46°   Ceiling: 700
Heat Index: 46°   Visibility: 5mi
Dew Point: 44°   Wind: 0mph
Humidity: 94%   Direction: NA
Pressure: 30.24"   Gusts: NA
Location:  33.07°N, 95.2°W
Report Text: KOSA 200535Z AUTO 00000KT 5SM OVC007 08/07 A3024 RMK AO1 T00750066
Loading
Personal Weather Stations






























Interactive Weather Map New forecast layout! Learn more

10-Day Weather Forecast

Advertisements
Track Severe Weather on mobile